createdAt,value
2018-04-14T00:02:00.393Z,94741.44
2018-04-14T00:04:28.841Z,94745.50
2018-04-14T00:06:57.243Z,94745.08
2018-04-14T00:09:25.655Z,94749.17
2018-04-14T00:11:54.046Z,94746.31
2018-04-14T00:14:22.463Z,94741.67
2018-04-14T00:16:50.821Z,94746.47
2018-04-14T00:19:19.289Z,94751.75
2018-04-14T00:21:47.709Z,94754.38
2018-04-14T00:24:16.123Z,94761.27
2018-04-14T00:26:44.530Z,94772.19
2018-04-14T00:29:12.901Z,94770.27
2018-04-14T00:31:41.269Z,94770.68
2018-04-14T00:34:09.637Z,94776.32
2018-04-14T00:36:38.006Z,94777.03
2018-04-14T00:39:06.426Z,94773.73
2018-04-14T00:41:34.882Z,94771.45
2018-04-14T00:44:03.248Z,94772.14
2018-04-14T00:46:31.614Z,94782.91
2018-04-14T00:48:59.980Z,94785.52
2018-04-14T00:51:28.389Z,94778.44
2018-04-14T00:53:56.773Z,94775.81
2018-04-14T00:56:25.258Z,94777.36
2018-04-14T00:58:53.641Z,94773.67
2018-04-14T01:01:22.197Z,94779.70
2018-04-14T01:03:50.618Z,94780.74
2018-04-14T01:06:19.009Z,94791.92
2018-04-14T01:08:47.368Z,94792.03
2018-04-14T01:11:15.765Z,94794.73
2018-04-14T01:13:44.203Z,94795.67
2018-04-14T01:16:12.617Z,94805.05
2018-04-14T01:18:41.155Z,94807.78
2018-04-14T01:21:09.558Z,94799.08
2018-04-14T01:23:37.937Z,94803.13
2018-04-14T01:26:06.301Z,94800.77
2018-04-14T01:28:34.669Z,94807.52
2018-04-14T01:31:03.202Z,94799.83
2018-04-14T01:33:31.561Z,94808.13
2018-04-14T01:35:59.927Z,94801.34
2018-04-14T01:38:28.291Z,94803.39
2018-04-14T01:40:56.690Z,94802.73
2018-04-14T01:43:25.227Z,94804.32
2018-04-14T01:45:53.625Z,94807.10
2018-04-14T01:48:22.100Z,94807.42
2018-04-14T01:50:50.505Z,94800.63
2018-04-14T01:53:18.988Z,94810.83
2018-04-14T01:55:47.532Z,94803.56
2018-04-14T01:58:16.129Z,94804.28
2018-04-14T02:00:44.547Z,94808.59
2018-04-14T02:03:12.953Z,94814.27
2018-04-14T02:05:41.356Z,94814.20
2018-04-14T02:08:09.820Z,94810.63
2018-04-14T02:10:38.277Z,94812.53
2018-04-14T02:13:06.676Z,94809.72
2018-04-14T02:15:35.043Z,94805.63
2018-04-14T02:18:03.522Z,94806.58
2018-04-14T02:20:31.938Z,94810.48
2018-04-14T02:23:00.317Z,94811.37
2018-04-14T02:25:28.703Z,94810.13
2018-04-14T02:27:57.103Z,94801.06
2018-04-14T02:30:25.505Z,94804.69
2018-04-14T02:32:53.985Z,94806.52
2018-04-14T02:35:22.445Z,94806.38
2018-04-14T02:37:50.885Z,94810.27
2018-04-14T02:40:19.282Z,94808.19
2018-04-14T02:42:47.649Z,94810.77
2018-04-14T02:45:16.043Z,94812.20
2018-04-14T02:47:44.492Z,94809.66
2018-04-14T02:50:12.873Z,94804.95
2018-04-14T02:52:41.388Z,94802.27
2018-04-14T02:55:09.755Z,94807.71
2018-04-14T02:57:38.112Z,94809.67
2018-04-14T03:00:30.116Z,94818.02
2018-04-14T03:02:58.481Z,94813.07
2018-04-14T03:05:26.906Z,94821.70
2018-04-14T03:07:55.353Z,94824.65
2018-04-14T03:10:23.754Z,94816.61
2018-04-14T03:12:52.116Z,94824.77
2018-04-14T03:15:20.516Z,94820.61
2018-04-14T03:17:49.033Z,94828.01
2018-04-14T03:20:17.406Z,94823.76
2018-04-14T03:22:45.762Z,94826.39
2018-04-14T03:25:14.124Z,94832.67
2018-04-14T03:27:42.493Z,94834.45
2018-04-14T03:30:11.043Z,94836.53
2018-04-14T03:32:39.418Z,94826.16
2018-04-14T03:35:07.789Z,94824.66
2018-04-14T03:37:36.176Z,94830.35
2018-04-14T03:40:04.536Z,94834.34
2018-04-14T03:42:32.976Z,94835.13
2018-04-14T03:45:01.354Z,94833.91
2018-04-14T03:47:29.823Z,94839.73
2018-04-14T03:49:58.262Z,94842.87
2018-04-14T03:52:26.641Z,94854.70
2018-04-14T03:54:55.198Z,94849.19
2018-04-14T03:57:23.563Z,94846.56
2018-04-14T03:59:51.959Z,94844.56
2018-04-14T04:02:20.414Z,94853.55
2018-04-14T04:04:48.813Z,94849.23
2018-04-14T04:07:17.278Z,94856.09
2018-04-14T04:09:45.676Z,94857.34
2018-04-14T04:12:14.057Z,94859.77
2018-04-14T04:14:42.524Z,94865.20
2018-04-14T04:17:10.897Z,94865.75
2018-04-14T04:19:50.951Z,94864.13
2018-04-14T04:22:31.194Z,94866.77
2018-04-14T04:28:04.131Z,94872.82
2018-04-14T04:30:32.282Z,94874.06
2018-04-14T04:33:00.383Z,94876.91
2018-04-14T04:35:28.481Z,94877.97
2018-04-14T04:37:56.591Z,94883.44
2018-04-14T04:40:24.871Z,94888.78
2018-04-14T04:42:53.043Z,94892.69
2018-04-14T04:45:21.145Z,94894.13
2018-04-14T04:47:49.242Z,94899.25
2018-04-14T04:50:17.414Z,94899.30
2018-04-14T04:52:45.549Z,94905.47
2018-04-14T04:55:13.647Z,94911.83
2018-04-14T04:57:41.745Z,94915.11
2018-04-14T05:00:09.844Z,94909.95
2018-04-14T05:02:38.128Z,94914.55
2018-04-14T05:05:06.237Z,94910.97
2018-04-14T05:07:34.348Z,94913.00
2018-04-14T05:10:02.464Z,94910.05
2018-04-14T05:12:30.579Z,94915.16
2018-04-14T05:14:58.737Z,94926.02
2018-04-14T05:17:26.862Z,94931.28
2018-04-14T05:19:54.976Z,94926.22
2018-04-14T05:22:23.106Z,94931.76
2018-04-14T05:24:51.230Z,94929.88
2018-04-14T05:27:19.353Z,94930.18
2018-04-14T05:29:47.477Z,94929.77
2018-04-14T05:32:15.629Z,94938.42
2018-04-14T05:34:43.849Z,94942.31
2018-04-14T05:37:11.965Z,94940.33
2018-04-14T05:39:40.159Z,94942.04
2018-04-14T05:42:08.279Z,94941.83
2018-04-14T05:44:36.443Z,94933.72
2018-04-14T05:47:04.566Z,94937.61
2018-04-14T05:49:32.651Z,94944.16
2018-04-14T05:52:00.769Z,94940.19
2018-04-14T05:54:29.006Z,94936.09
2018-04-14T05:56:57.197Z,94933.64
2018-04-14T05:59:25.318Z,94934.27
2018-04-14T06:01:53.546Z,94928.66
2018-04-14T06:04:21.682Z,94940.38
2018-04-14T06:06:49.794Z,94941.03
2018-04-14T06:09:18.102Z,94933.94
2018-04-14T06:11:46.232Z,94934.92
2018-04-14T06:14:14.350Z,94935.56
2018-04-14T06:16:42.561Z,94938.28
2018-04-14T06:19:10.730Z,94937.55
2018-04-14T06:21:38.993Z,94940.31
2018-04-14T06:24:07.165Z,94947.77
2018-04-14T06:26:35.252Z,94950.13
2018-04-14T06:29:03.344Z,94953.28
2018-04-14T06:31:31.456Z,94957.11
2018-04-14T06:34:00.646Z,94968.44
2018-04-14T06:36:28.718Z,94970.55
2018-04-14T06:38:56.798Z,94966.28
2018-04-14T06:41:25.126Z,94967.09
2018-04-14T06:43:53.212Z,94963.72
2018-04-14T06:46:21.399Z,94966.09
2018-04-14T06:48:49.486Z,94966.53
2018-04-14T06:51:17.567Z,94975.48
2018-04-14T06:53:45.653Z,94970.52
2018-04-14T06:56:13.742Z,94968.17
2018-04-14T06:58:41.905Z,94969.77
2018-04-14T07:01:10.033Z,94969.87
2018-04-14T07:03:38.125Z,94974.02
2018-04-14T07:06:06.215Z,94978.32
2018-04-14T07:08:34.347Z,94981.17
2018-04-14T07:11:02.493Z,94979.22
2018-04-14T07:13:30.806Z,94982.89
2018-04-14T07:15:58.922Z,94978.91
2018-04-14T07:18:27.074Z,94989.91
2018-04-14T07:20:55.190Z,94994.45
2018-04-14T07:23:23.382Z,94999.90
2018-04-14T07:25:51.585Z,95007.27
2018-04-14T07:28:19.704Z,95009.50
2018-04-14T07:30:47.831Z,94998.84
2018-04-14T07:33:15.962Z,95006.05
2018-04-14T07:35:44.236Z,95011.59
2018-04-14T07:38:12.369Z,95012.22
2018-04-14T07:40:40.489Z,95020.20
2018-04-14T07:43:08.611Z,95021.31
2018-04-14T07:45:36.733Z,95029.18
2018-04-14T07:48:04.885Z,95039.62
2018-04-14T07:50:33.039Z,95035.89
2018-04-14T07:53:01.187Z,95051.05
2018-04-14T07:55:29.306Z,95047.46
2018-04-14T07:57:57.483Z,95048.27
2018-04-14T08:00:25.664Z,95054.76
2018-04-14T08:02:53.777Z,95055.50
2018-04-14T08:05:21.895Z,95053.05
2018-04-14T08:07:50.036Z,95057.02
2018-04-14T08:10:18.162Z,95055.44
2018-04-14T08:12:46.458Z,95063.24
2018-04-14T08:15:14.588Z,95060.21
2018-04-14T08:17:42.706Z,95061.93
2018-04-14T08:20:10.815Z,95064.61
2018-04-14T08:22:38.948Z,95067.44
2018-04-14T08:25:07.117Z,95079.36
2018-04-14T08:27:35.237Z,95074.59
2018-04-14T08:30:03.423Z,95077.34
2018-04-14T08:32:31.583Z,95078.79
2018-04-14T08:34:59.713Z,95077.91
2018-04-14T08:37:27.934Z,95083.75
2018-04-14T08:39:56.029Z,95084.41
2018-04-14T08:42:24.160Z,95090.73
2018-04-14T08:44:52.279Z,95088.59
2018-04-14T08:47:20.397Z,95100.36
2018-04-14T08:49:48.651Z,95103.65
2018-04-14T08:52:16.776Z,95104.14
2018-04-14T08:54:45.121Z,95111.30
2018-04-14T08:57:13.208Z,95108.37
2018-04-14T08:59:41.289Z,95107.03
2018-04-14T09:02:10.387Z,95109.69
2018-04-14T09:04:38.474Z,95118.73
2018-04-14T09:07:06.744Z,95106.19
2018-04-14T09:09:34.900Z,95113.02
2018-04-14T09:12:02.986Z,95113.26
2018-04-14T09:14:31.074Z,95116.03
2018-04-14T09:16:59.177Z,95113.59
2018-04-14T09:19:27.667Z,95118.20
2018-04-14T09:21:56.072Z,95120.46
2018-04-14T09:24:24.585Z,95112.45
2018-04-14T09:26:53.129Z,95116.56
2018-04-14T09:29:21.549Z,95117.45
2018-04-14T09:31:49.985Z,95116.27
2018-04-14T09:34:18.444Z,95122.63
2018-04-14T09:36:46.852Z,95123.24
2018-04-14T09:39:15.216Z,95120.01
2018-04-14T09:41:43.674Z,95125.14
2018-04-14T09:44:12.062Z,95126.41
2018-04-14T09:46:40.472Z,95116.73
2018-04-14T09:49:08.864Z,95116.54
2018-04-14T09:51:37.256Z,95113.20
2018-04-14T09:54:05.730Z,95111.29
2018-04-14T09:56:34.117Z,95115.71
2018-04-14T09:59:02.505Z,95119.30
2018-04-14T10:01:30.903Z,95117.64
2018-04-14T10:03:59.420Z,95116.72
2018-04-14T10:06:27.903Z,95117.80
2018-04-14T10:08:56.288Z,95123.04
2018-04-14T10:11:24.705Z,95118.24
2018-04-14T10:13:53.318Z,95113.76
2018-04-14T10:16:21.812Z,95119.78
2018-04-14T10:18:50.224Z,95113.76
2018-04-14T10:21:18.613Z,95118.53
2018-04-14T10:23:47.148Z,95113.05
2018-04-14T10:26:15.517Z,95115.70
2018-04-14T10:28:43.955Z,95111.04
2018-04-14T10:31:12.437Z,95122.75
2018-04-14T10:33:40.854Z,95114.49
2018-04-14T10:36:09.231Z,95110.08
2018-04-14T10:38:37.660Z,95110.28
2018-04-14T10:41:06.214Z,95113.55
2018-04-14T10:43:34.585Z,95111.12
2018-04-14T10:46:02.986Z,95116.70
2018-04-14T10:48:31.385Z,95109.56
2018-04-14T10:50:59.879Z,95108.51
2018-04-14T10:53:28.294Z,95113.64
2018-04-14T10:55:56.758Z,95121.73
2018-04-14T10:58:25.264Z,95114.05
2018-04-14T11:00:53.672Z,95122.54
2018-04-14T11:03:22.042Z,95126.19
2018-04-14T11:05:50.428Z,95125.36
2018-04-14T11:08:18.777Z,95118.97
2018-04-14T11:10:47.229Z,95120.38
2018-04-14T11:13:15.591Z,95118.59
2018-04-14T11:15:43.948Z,95126.97
2018-04-14T11:18:12.315Z,95122.13
2018-04-14T11:20:40.667Z,95124.22
2018-04-14T11:23:09.099Z,95110.80
2018-04-14T11:25:37.461Z,95116.91
2018-04-14T11:28:05.809Z,95115.38
2018-04-14T11:30:34.189Z,95115.00
2018-04-14T11:33:02.656Z,95116.88
2018-04-14T11:35:32.120Z,95114.71
2018-04-14T11:38:00.476Z,95116.73
2018-04-14T11:40:28.833Z,95120.58
2018-04-14T11:42:57.189Z,95108.74
2018-04-14T11:45:25.545Z,95128.68
2018-04-14T11:47:53.899Z,95127.39
2018-04-14T11:50:22.271Z,95140.34
2018-04-14T11:52:50.774Z,95138.45
2018-04-14T11:55:19.141Z,95139.50
2018-04-14T11:57:47.512Z,95142.73
2018-04-14T12:00:15.887Z,95150.17
2018-04-14T12:02:44.327Z,95142.12
2018-04-14T12:05:12.826Z,95156.84
2018-04-14T12:07:41.175Z,95141.17
2018-04-14T12:10:09.544Z,95147.69
2018-04-14T12:12:37.899Z,95147.48
2018-04-14T12:15:06.272Z,95154.59
2018-04-14T12:17:34.714Z,95151.32
2018-04-14T12:20:03.054Z,95145.05
2018-04-14T12:22:31.421Z,95147.42
2018-04-14T12:24:59.773Z,95155.13
2018-04-14T12:27:28.129Z,95161.16
2018-04-14T12:29:56.555Z,95160.42
2018-04-14T12:32:24.934Z,95159.19
2018-04-14T12:34:53.286Z,95164.55
2018-04-14T12:37:21.772Z,95156.96
2018-04-14T12:39:50.139Z,95161.41
2018-04-14T12:42:18.558Z,95165.28
2018-04-14T12:44:46.926Z,95165.78
2018-04-14T12:47:15.276Z,95158.61
2018-04-14T12:49:43.633Z,95152.97
2018-04-14T12:52:11.989Z,95150.31
2018-04-14T12:54:40.433Z,95147.28
2018-04-14T12:57:08.795Z,95152.52
2018-04-14T12:59:37.156Z,95146.73
2018-04-14T13:02:05.607Z,95143.56
2018-04-14T13:04:34.001Z,95150.02
2018-04-14T13:07:02.395Z,95156.42
2018-04-14T13:09:30.801Z,95158.04
2018-04-14T13:11:59.189Z,95156.58
2018-04-14T13:14:27.634Z,95167.16
2018-04-14T13:16:56.042Z,95161.92
2018-04-14T13:19:24.435Z,95165.74
2018-04-14T13:21:52.905Z,95163.50
2018-04-14T13:24:21.301Z,95165.52
2018-04-14T13:26:49.903Z,95153.64
2018-04-14T13:29:19.280Z,95162.16
2018-04-14T13:31:47.662Z,95161.84
2018-04-14T13:34:16.055Z,95160.28
2018-04-14T13:36:44.710Z,95166.47
2018-04-14T13:39:13.168Z,95167.51
2018-04-14T13:41:41.559Z,95167.58
2018-04-14T13:44:10.033Z,95171.07
2018-04-14T13:46:38.446Z,95173.61
2018-04-14T13:49:06.837Z,95166.26
2018-04-14T13:51:35.373Z,95169.91
2018-04-14T13:54:03.765Z,95167.11
2018-04-14T13:56:33.041Z,95172.44
2018-04-14T13:59:01.403Z,95176.19
2018-04-14T14:01:29.774Z,95171.72
2018-04-14T14:03:58.199Z,95167.29
2018-04-14T14:06:26.554Z,95163.30
2018-04-14T14:08:54.934Z,95165.69
2018-04-14T14:11:23.304Z,95159.45
2018-04-14T14:13:51.663Z,95164.41
2018-04-14T14:16:20.038Z,95172.03
2018-04-14T14:18:48.391Z,95170.78
2018-04-14T14:21:16.794Z,95161.55
2018-04-14T14:23:45.255Z,95164.44
2018-04-14T14:26:13.706Z,95164.66
2018-04-14T14:28:42.182Z,95150.88
2018-04-14T14:31:10.563Z,95157.02
2018-04-14T14:33:38.942Z,95161.74
2018-04-14T14:36:07.346Z,95157.02
2018-04-14T14:38:35.902Z,95155.59
2018-04-14T14:41:04.324Z,95152.04
2018-04-14T14:43:32.838Z,95149.12
2018-04-14T14:46:01.294Z,95150.38
2018-04-14T14:48:29.826Z,95148.20
2018-04-14T14:50:58.202Z,95149.30
2018-04-14T14:53:26.614Z,95145.91
2018-04-14T14:55:55.164Z,95149.86
2018-04-14T14:58:23.561Z,95153.88
2018-04-14T15:00:51.950Z,95151.75
2018-04-14T15:03:20.411Z,95143.19
2018-04-14T15:05:48.872Z,95141.45
2018-04-14T15:08:17.264Z,95144.23
2018-04-14T15:10:45.659Z,95136.38
2018-04-14T15:13:14.128Z,95133.81
2018-04-14T15:15:42.545Z,95136.56
2018-04-14T15:18:10.993Z,95134.62
2018-04-14T15:20:39.368Z,95138.45
2018-04-14T15:23:07.842Z,95132.87
2018-04-14T15:25:36.479Z,95126.73
2018-04-14T15:28:04.868Z,95120.77
2018-04-14T15:30:33.340Z,95119.27
2018-04-14T15:33:01.732Z,95123.67
2018-04-14T15:35:30.251Z,95125.45
2018-04-14T15:37:58.650Z,95131.52
2018-04-14T15:40:27.038Z,95126.03
2018-04-14T15:42:55.430Z,95128.32
2018-04-14T15:45:23.818Z,95121.15
2018-04-14T15:47:52.280Z,95114.94
2018-04-14T15:50:20.673Z,95117.91
2018-04-14T15:52:49.042Z,95114.77
2018-04-14T15:55:17.438Z,95115.16
2018-04-14T15:57:45.851Z,95118.11
2018-04-14T16:00:14.387Z,95117.02
2018-04-14T16:02:42.793Z,95119.66
2018-04-14T16:05:11.178Z,95116.63
2018-04-14T16:07:39.610Z,95120.20
2018-04-14T16:10:08.009Z,95125.02
2018-04-14T16:12:36.573Z,95131.13
2018-04-14T16:15:04.974Z,95132.77
2018-04-14T16:17:33.383Z,95132.36
2018-04-14T16:20:01.797Z,95133.14
2018-04-14T16:22:30.285Z,95132.77
2018-04-14T16:24:58.797Z,95130.28
2018-04-14T16:27:27.194Z,95128.78
2018-04-14T16:29:55.648Z,95127.53
2018-04-14T16:32:24.041Z,95124.41
2018-04-14T16:34:52.391Z,95125.25
2018-04-14T16:37:20.839Z,95119.62
2018-04-14T16:39:49.193Z,95120.05
2018-04-14T16:42:17.613Z,95121.75
2018-04-14T16:44:46.003Z,95130.37
2018-04-14T16:47:14.371Z,95124.03
2018-04-14T16:49:42.748Z,95128.43
2018-04-14T16:52:11.120Z,95125.08
2018-04-14T16:54:39.494Z,95122.54
2018-04-14T16:57:07.877Z,95121.52
2018-04-14T16:59:36.414Z,95125.95
2018-04-14T17:02:04.933Z,95120.50
2018-04-14T17:04:33.355Z,95119.73
2018-04-14T17:07:01.761Z,95119.14
2018-04-14T17:09:30.482Z,95126.25
2018-04-14T17:11:59.505Z,95123.70
2018-04-14T17:14:27.998Z,95120.61
2018-04-14T17:16:56.417Z,95120.92
2018-04-14T17:19:24.827Z,95120.61
2018-04-14T17:21:53.262Z,95121.75
2018-04-14T17:24:21.774Z,95123.39
2018-04-14T17:26:50.157Z,95125.34
2018-04-14T17:29:18.573Z,95127.84
2018-04-14T17:31:47.025Z,95122.90
2018-04-14T17:34:15.441Z,95128.55
2018-04-14T17:36:44.521Z,95127.44
2018-04-14T17:39:13.644Z,95131.08
2018-04-14T17:41:42.124Z,95125.79
2018-04-14T17:44:10.540Z,95124.16
2018-04-14T17:46:39.075Z,95130.19
2018-04-14T17:49:07.488Z,95142.64
2018-04-14T17:51:35.925Z,95138.27
2018-04-14T17:54:04.337Z,95139.30
2018-04-14T17:56:32.760Z,95139.44
2018-04-14T17:59:01.866Z,95145.08
2018-04-14T18:01:30.332Z,95139.89
2018-04-14T18:03:58.808Z,95140.20
2018-04-14T18:06:27.231Z,95139.94
2018-04-14T18:08:55.640Z,95141.61
2018-04-14T18:11:24.184Z,95148.08
2018-04-14T18:13:52.600Z,95157.70
2018-04-14T18:16:21.012Z,95152.28
2018-04-14T18:18:49.507Z,95151.62
2018-04-14T18:21:17.932Z,95155.52
2018-04-14T18:23:46.522Z,95147.45
2018-04-14T18:26:15.506Z,95150.61
2018-04-14T18:28:43.942Z,95150.97
2018-04-14T18:31:12.367Z,95154.55
2018-04-14T18:33:40.785Z,95150.80
2018-04-14T18:36:09.277Z,95162.19
2018-04-14T18:38:37.688Z,95171.88
2018-04-14T18:41:06.092Z,95172.41
2018-04-14T18:43:34.631Z,95170.88
2018-04-14T18:46:03.072Z,95172.80
2018-04-14T18:48:31.770Z,95176.35
2018-04-14T18:51:00.475Z,95175.55
2018-04-14T18:53:28.871Z,95178.27
2018-04-14T18:55:57.348Z,95175.52
2018-04-14T18:58:25.722Z,95176.41
2018-04-14T19:00:54.188Z,95179.44
2018-04-14T19:03:22.584Z,95174.82
2018-04-14T19:05:51.012Z,95173.75
2018-04-14T19:08:19.391Z,95172.68
2018-04-14T19:10:47.771Z,95165.20
2018-04-14T19:13:16.230Z,95167.41
2018-04-14T19:15:46.459Z,95172.00
2018-04-14T19:18:14.831Z,95168.34
2018-04-14T19:20:43.206Z,95168.16
2018-04-14T19:23:11.584Z,95165.69
2018-04-14T19:25:40.050Z,95168.95
2018-04-14T19:28:08.471Z,95173.64
2018-04-14T19:30:36.877Z,95172.65
2018-04-14T19:33:05.370Z,95170.27
2018-04-14T19:35:33.773Z,95174.52
2018-04-14T19:38:02.556Z,95178.53
2018-04-14T19:40:30.946Z,95169.52
2018-04-14T19:42:59.403Z,95171.55
2018-04-14T19:45:27.821Z,95176.60
2018-04-14T19:47:56.238Z,95177.63
2018-04-14T19:50:24.640Z,95174.28
2018-04-14T19:52:53.057Z,95181.16
2018-04-14T19:55:21.507Z,95178.51
2018-04-14T19:57:49.920Z,95179.95
2018-04-14T20:00:18.347Z,95167.19
2018-04-14T20:02:46.755Z,95162.98
2018-04-14T20:05:15.719Z,95160.27
2018-04-14T20:07:44.305Z,95159.36
2018-04-14T20:10:12.739Z,95169.00
2018-04-14T20:12:41.331Z,95176.70
2018-04-14T20:15:09.766Z,95184.77
2018-04-14T20:17:38.282Z,95184.37
2018-04-14T20:20:06.811Z,95180.21
2018-04-14T20:22:35.248Z,95181.38
2018-04-14T20:25:03.656Z,95174.11
2018-04-14T20:27:32.068Z,95173.54
2018-04-14T20:30:00.485Z,95173.42
2018-04-14T20:32:29.047Z,95168.30
2018-04-14T20:34:57.935Z,95165.89
2018-04-14T20:37:26.614Z,95165.62
2018-04-14T20:39:55.140Z,95157.00
2018-04-14T20:42:23.551Z,95153.22
2018-04-14T20:44:52.074Z,95153.46
2018-04-14T20:47:20.489Z,95146.39
2018-04-14T20:49:49.055Z,95150.02
2018-04-14T20:52:17.451Z,95142.47
2018-04-14T20:54:46.808Z,95137.47
2018-04-14T20:57:15.517Z,95146.06
2018-04-14T20:59:43.913Z,95139.75
2018-04-14T21:02:12.357Z,95140.92
2018-04-14T21:04:40.770Z,95140.87
2018-04-14T21:07:09.264Z,95143.09
2018-04-14T21:09:37.643Z,95150.98
2018-04-14T21:12:06.053Z,95142.92
2018-04-14T21:14:34.571Z,95142.28
2018-04-14T21:17:02.962Z,95146.22
2018-04-14T21:19:32.195Z,95142.74
2018-04-14T21:22:00.847Z,95148.48
2018-04-14T21:24:29.251Z,95147.55
2018-04-14T21:26:57.625Z,95140.89
2018-04-14T21:29:25.994Z,95139.02
2018-04-14T21:31:54.412Z,95137.76
2018-04-14T21:34:22.888Z,95128.10
2018-04-14T21:36:51.351Z,95133.64
2018-04-14T21:39:19.745Z,95132.61
2018-04-14T21:41:48.112Z,95126.04
2018-04-14T21:44:16.817Z,95124.98
2018-04-14T21:46:45.486Z,95122.60
2018-04-14T21:49:13.868Z,95124.61
2018-04-14T21:51:42.360Z,95120.20
2018-04-14T21:54:10.719Z,95114.30
2018-04-14T21:56:39.133Z,95111.08
2018-04-14T21:59:07.523Z,95107.36
2018-04-14T22:01:35.980Z,95100.05
2018-04-14T22:04:04.383Z,95104.98
2018-04-14T22:06:33.003Z,95102.16
2018-04-14T22:09:01.448Z,95094.76
2018-04-14T22:11:30.113Z,95097.45
2018-04-14T22:13:58.601Z,95097.16
2018-04-14T22:16:27.016Z,95094.52
2018-04-14T22:18:55.401Z,95096.22
2018-04-14T22:21:23.788Z,95099.80
2018-04-14T22:23:52.150Z,95100.81
2018-04-14T22:26:20.578Z,95103.91
2018-04-14T22:28:49.038Z,95104.80
2018-04-14T22:31:17.487Z,95105.48
2018-04-14T22:33:46.121Z,95101.32
2018-04-14T22:36:14.489Z,95095.80
2018-04-14T22:38:42.946Z,95085.36
2018-04-14T22:41:11.307Z,95096.30
2018-04-14T22:43:39.688Z,95090.64
2018-04-14T22:46:08.055Z,95092.22
2018-04-14T22:48:36.422Z,95084.72
2018-04-14T22:51:04.937Z,95081.81
2018-04-14T22:53:33.305Z,95084.84
2018-04-14T22:56:01.704Z,95079.10
2018-04-14T22:58:30.116Z,95078.98
2018-04-14T23:00:58.527Z,95080.66
2018-04-14T23:03:26.877Z,95068.00
2018-04-14T23:05:55.324Z,95072.22
2018-04-14T23:08:23.684Z,95075.31
2018-04-14T23:10:52.134Z,95072.98
2018-04-14T23:13:20.494Z,95073.02
2018-04-14T23:15:48.874Z,95071.77
2018-04-14T23:18:17.289Z,95066.97
2018-04-14T23:20:45.707Z,95062.27
2018-04-14T23:23:14.753Z,95067.19
2018-04-14T23:25:43.552Z,95066.85
2018-04-14T23:28:12.101Z,95065.20
2018-04-14T23:30:40.561Z,95056.88
2018-04-14T23:33:08.948Z,95058.94
2018-04-14T23:35:37.457Z,95050.19
2018-04-14T23:38:05.855Z,95054.83
2018-04-14T23:40:34.310Z,95053.50
2018-04-14T23:43:02.726Z,95055.09
2018-04-14T23:45:31.082Z,95051.19
2018-04-14T23:47:59.467Z,95047.67
2018-04-14T23:50:27.943Z,95047.82
2018-04-14T23:52:56.319Z,95042.30
2018-04-14T23:55:24.698Z,95036.78
2018-04-14T23:57:53.350Z,95039.13
